Terminal Aerodrome Forecast
Issued by NWS Des Moines, IA

Home | Current Version | Previous Version | Text Only | Print | Product List | Glossary On
Versions: 1 2 3 4 5 6 7 8 9 10 11 12 13 14 15 16 17 18 19 20 21 22 23 24 25 26 27 28 29 30 31 32 33 34
000
FTUS43 KDMX 252341
TAFDSM
TAF
KDSM 252341Z 2600/2624 35010KT 6SM -RA VCTS SCT009CB OVC035
      TEMPO 2600/2603 1/2SM TSRA BKN015CB OVC070
     FM260300 VRB05KT P6SM VCSH BKN008 OVC060
     FM261000 VRB03KT P6SM VCSH OVC012=

USA.gov is the U.S. government's official web portal to all federal, state and local government web resources and services.